Time;durP1;ratioP1;P1;durP2;ratioP2;P2;SDS_P1;SDS_P2;PMS_P1;PMS_P2;Temp;Humidity;BMP_temperature;BMP_pressure;BME280_temperature;BME280_humidity;BME280_pressure;Samples;Min_cycle;Max_cycle;Signal;HPM_P1;HPM_P2
2023/01/19 00:00:09;;;;;;;4.05;1.25;;;;;;;15.41;100.00;101706.56;2093276;28;20492;-74
2023/01/19 00:01:31;;;;;;;5.78;1.13;;;;;;;15.41;100.00;101702.13;2096678;28;20554;-74
2023/01/19 00:02:54;;;;;;;8.00;1.27;;;;;;;15.43;100.00;101704.78;2100593;28;20059;-74
2023/01/19 00:04:16;;;;;;;6.30;0.98;;;;;;;15.45;100.00;101709.25;2102777;28;20040;-74
2023/01/19 00:05:37;;;;;;;4.05;1.13;;;;;;;15.46;100.00;101694.19;2102234;28;20421;-74
2023/01/19 00:07:02;;;;;;;7.75;1.17;;;;;;;15.45;100.00;101700.38;2091890;28;20045;-74
2023/01/19 00:08:25;;;;;;;6.65;1.17;;;;;;;15.45;100.00;101711.91;2094525;28;20080;-74
2023/01/19 00:09:48;;;;;;;6.03;1.15;;;;;;;15.43;100.00;101703.00;2094496;28;20052;-74
2023/01/19 00:11:09;;;;;;;4.13;0.70;;;;;;;15.44;100.00;101701.25;2082920;28;20068;-74
2023/01/19 00:12:32;;;;;;;4.78;1.02;;;;;;;15.46;100.00;101704.81;2097356;28;20315;-74
2023/01/19 00:13:54;;;;;;;5.05;1.13;;;;;;;15.48;100.00;101700.41;2102249;28;20056;-74
2023/01/19 00:15:15;;;;;;;7.47;1.13;;;;;;;15.51;100.00;101705.75;2094128;28;20041;-74
2023/01/19 00:16:38;;;;;;;4.43;1.42;;;;;;;15.51;100.00;101698.66;2094298;28;20056;-73
2023/01/19 00:17:59;;;;;;;4.03;1.45;;;;;;;15.51;100.00;101700.44;2102537;28;20040;-74
2023/01/19 00:19:21;;;;;;;3.63;1.15;;;;;;;15.50;100.00;101702.19;2093810;28;20130;-74
2023/01/19 00:20:45;;;;;;;3.65;1.20;;;;;;;15.52;100.00;101699.56;2091658;28;20055;-74
2023/01/19 00:22:07;;;;;;;6.75;1.00;;;;;;;15.51;100.00;101706.66;2094450;28;20071;-74
2023/01/19 00:23:31;;;;;;;7.57;0.95;;;;;;;15.51;100.00;101700.44;2096534;28;20110;-74
2023/01/19 00:24:53;;;;;;;6.95;1.05;;;;;;;15.50;100.00;101709.28;2091559;28;20533;-74
2023/01/19 00:26:16;;;;;;;3.75;1.17;;;;;;;15.48;100.00;101708.41;2096670;28;20534;-73
2023/01/19 00:27:37;;;;;;;6.65;1.10;;;;;;;15.46;100.00;101707.47;2094108;28;20406;-73
2023/01/19 00:29:00;;;;;;;5.32;0.90;;;;;;;15.49;100.00;101710.19;2094110;28;20078;-74
2023/01/19 00:30:21;;;;;;;4.25;1.00;;;;;;;15.54;100.00;101716.50;2094250;28;20049;-74
2023/01/19 00:31:44;;;;;;;5.15;1.55;;;;;;;15.53;100.00;101702.28;2094343;28;20068;-74
2023/01/19 00:33:05;;;;;;;5.13;1.58;;;;;;;15.49;100.00;101703.06;2096919;28;20494;-74
2023/01/19 00:34:35;;;;;;;5.47;2.30;;;;;;;15.44;100.00;101704.81;2085241;28;20487;-74
2023/01/19 00:35:58;;;;;;;4.35;1.42;;;;;;;15.40;100.00;101704.75;2085604;28;20088;-74
2023/01/19 00:37:20;;;;;;;4.75;1.20;;;;;;;15.38;100.00;101698.53;2087572;28;20055;-74
2023/01/19 00:38:43;;;;;;;8.18;2.40;;;;;;;15.37;100.00;101700.28;2094287;28;20147;-74
2023/01/19 00:40:07;;;;;;;7.97;2.75;;;;;;;15.35;100.00;101696.75;2099148;28;20049;-73
2023/01/19 00:43:05;;;;;;;5.90;1.02;;;;;;;15.50;100.00;101690.66;2103409;28;20394;-74
2023/01/19 00:44:26;;;;;;;2.65;1.00;;;;;;;15.56;100.00;101687.22;2100387;28;20056;-74
2023/01/19 00:45:48;;;;;;;3.15;0.88;;;;;;;15.56;100.00;101690.75;2094259;28;20048;-74
2023/01/19 00:47:10;;;;;;;4.25;0.90;;;;;;;15.56;100.00;101693.41;2098216;28;20044;-74
2023/01/19 00:48:32;;;;;;;2.45;0.80;;;;;;;15.53;100.00;101696.97;2105081;28;20559;-74
2023/01/19 00:49:53;;;;;;;2.83;1.25;;;;;;;15.49;100.00;101710.19;2102033;28;20105;-74
2023/01/19 00:51:15;;;;;;;4.50;1.08;;;;;;;15.45;100.00;101695.94;2102221;28;20044;-73
2023/01/19 00:52:37;;;;;;;4.47;0.85;;;;;;;15.46;100.00;101702.16;2094107;28;20056;-74
2023/01/19 00:54:03;;;;;;;6.88;1.08;;;;;;;15.47;100.00;101703.94;2087650;28;20051;-74
2023/01/19 00:55:27;;;;;;;4.10;0.90;;;;;;;15.48;100.00;101706.63;2100502;28;20098;-74
2023/01/19 00:56:49;;;;;;;2.40;0.80;;;;;;;15.56;100.00;101700.53;2095718;28;20525;-74
2023/01/19 00:58:12;;;;;;;2.83;0.93;;;;;;;15.60;100.00;101705.91;2106297;28;20074;-74
2023/01/19 00:59:34;;;;;;;2.78;0.70;;;;;;;15.62;100.00;101712.09;2095392;28;20395;-74
2023/01/19 01:01:02;;;;;;;3.88;0.80;;;;;;;15.64;100.00;101694.41;2096770;28;20044;-74
2023/01/19 01:02:23;;;;;;;3.40;0.90;;;;;;;15.64;100.00;101698.81;2110727;28;20075;-74
2023/01/19 01:03:46;;;;;;;6.75;1.02;;;;;;;15.65;100.00;101695.28;2102594;28;20133;-74
2023/01/19 01:05:08;;;;;;;6.15;1.00;;;;;;;15.62;100.00;101698.81;2094079;28;20040;-74
2023/01/19 01:06:31;;;;;;;4.32;1.20;;;;;;;15.58;100.00;101688.13;2099810;28;20594;-74
2023/01/19 01:07:52;;;;;;;3.40;0.80;;;;;;;15.54;100.00;101692.53;2102080;28;20505;-74
2023/01/19 01:09:16;;;;;;;2.05;0.82;;;;;;;15.51;100.00;101682.69;2100297;28;20036;-74
2023/01/19 01:10:38;;;;;;;3.40;0.95;;;;;;;15.59;100.00;101696.13;2100641;28;20050;-74
2023/01/19 01:11:59;;;;;;;2.65;1.02;;;;;;;15.62;100.00;101669.53;2103725;28;20055;-74
2023/01/19 01:13:22;;;;;;;8.18;1.20;;;;;;;15.59;100.00;101690.81;2101751;28;20054;-74
2023/01/19 01:14:43;;;;;;;4.22;0.73;;;;;;;15.59;100.00;101679.25;2095141;28;20588;-74
2023/01/19 01:16:08;;;;;;;5.00;0.90;;;;;;;15.59;100.00;101677.50;2099956;28;20040;-74
2023/01/19 01:17:29;;;;;;;5.90;1.08;;;;;;;15.59;100.00;101672.16;2094097;28;20072;-74
2023/01/19 01:18:52;;;;;;;2.60;0.73;;;;;;;15.63;100.00;101681.97;2106353;28;20073;-74
2023/01/19 01:20:16;;;;;;;4.32;0.88;;;;;;;15.63;100.00;101671.31;2096118;28;20040;-74
2023/01/19 01:21:38;;;;;;;9.88;0.98;;;;;;;15.61;100.00;101682.84;2094372;28;20048;-74
2023/01/19 01:23:00;;;;;;;5.18;0.90;;;;;;;15.59;100.00;101673.94;2085687;28;20056;-74
2023/01/19 01:24:23;;;;;;;3.90;0.98;;;;;;;15.59;100.00;101674.84;2104330;28;20054;-74
2023/01/19 01:25:46;;;;;;;4.22;0.85;;;;;;;15.58;100.00;101673.03;2096537;28;20052;-74
2023/01/19 01:27:07;;;;;;;4.50;0.95;;;;;;;15.59;100.00;101665.94;2093839;28;20039;-74
2023/01/19 01:28:30;;;;;;;4.85;1.35;;;;;;;15.58;100.00;101666.81;2098168;28;20125;-74
2023/01/19 01:29:51;;;;;;;4.80;0.88;;;;;;;15.54;100.00;101661.50;2085249;28;20587;-74
2023/01/19 01:31:13;;;;;;;5.28;1.00;;;;;;;15.52;100.00;101656.97;2099039;28;20048;-74
2023/01/19 01:32:35;;;;;;;6.60;1.50;;;;;;;15.52;100.00;101657.91;2099352;28;20040;-74
2023/01/19 01:33:57;;;;;;;5.95;1.45;;;;;;;15.51;100.00;101652.53;2095443;28;20135;-73
2023/01/19 01:35:20;;;;;;;2.38;1.00;;;;;;;15.53;100.00;101656.16;2099477;28;20082;-74
2023/01/19 01:36:41;;;;;;;5.25;1.20;;;;;;;15.57;100.00;101652.63;2104952;28;20579;-74
2023/01/19 01:38:04;;;;;;;5.97;0.93;;;;;;;15.59;100.00;101644.66;2100175;28;20097;-74
2023/01/19 01:39:28;;;;;;;2.15;0.80;;;;;;;15.63;100.00;101660.66;2099149;28;20048;-74
2023/01/19 01:40:49;;;;;;;3.20;0.88;;;;;;;15.68;100.00;101648.31;2085319;28;20052;-74
2023/01/19 01:42:17;;;;;;;3.13;0.95;;;;;;;15.71;100.00;101652.75;2091072;28;20102;-74
2023/01/19 01:43:44;;;;;;;2.10;0.85;;;;;;;15.75;100.00;101659.91;2100329;28;20149;-75
2023/01/19 01:45:26;;;;;;;4.90;1.13;;;;;;;15.77;100.00;101666.13;2101443;28;20048;-74
2023/01/19 01:46:49;;;;;;;6.00;0.95;;;;;;;15.79;100.00;101659.03;2104784;28;20044;-74
2023/01/19 01:48:15;;;;;;;5.60;1.20;;;;;;;15.80;100.00;101659.06;2092774;28;20232;-74
2023/01/19 01:49:37;;;;;;;3.85;1.15;;;;;;;15.75;100.00;101659.91;2099091;28;20072;-74
2023/01/19 01:52:47;;;;;;;3.38;0.98;;;;;;;15.68;100.00;101653.63;2096433;28;20048;-74
2023/01/19 01:54:14;;;;;;;4.78;1.00;;;;;;;15.68;100.00;101650.97;2094056;28;20107;-74
2023/01/19 01:55:42;;;;;;;5.30;0.93;;;;;;;15.68;100.00;101642.09;2097911;28;20135;-74
2023/01/19 01:57:11;;;;;;;6.22;1.35;;;;;;;15.68;100.00;101648.31;2094570;28;20060;-74
2023/01/19 01:58:34;;;;;;;4.60;1.17;;;;;;;15.69;100.00;101642.09;2099242;28;20464;-74
2023/01/19 01:59:57;;;;;;;4.95;1.08;;;;;;;15.74;100.00;101639.47;2101003;28;20391;-74
2023/01/19 02:02:59;;;;;;;2.90;1.05;;;;;;;15.72;100.00;101642.13;2094360;28;20044;-74
2023/01/19 02:04:21;;;;;;;5.57;1.25;;;;;;;15.67;100.00;101641.19;2100285;28;20043;-74
2023/01/19 02:05:43;;;;;;;3.97;0.65;;;;;;;15.65;100.00;101645.59;2096622;28;20465;-73
2023/01/19 02:13:51;;;;;;;5.90;1.00;;;;;;;15.74;100.00;101636.81;2104701;28;20044;-74
2023/01/19 02:15:15;;;;;;;3.28;0.82;;;;;;;15.82;100.00;101629.75;2104723;28;20456;-74
2023/01/19 02:16:38;;;;;;;2.58;0.57;;;;;;;15.89;100.00;101628.94;2093676;28;20045;-74
2023/01/19 02:17:59;;;;;;;5.05;0.82;;;;;;;15.95;100.00;101627.22;2093741;28;20052;-74
2023/01/19 02:19:28;;;;;;;5.13;0.93;;;;;;;15.98;100.00;101622.78;2094788;28;20149;-73
2023/01/19 02:20:56;;;;;;;4.25;0.98;;;;;;;15.95;100.00;101605.00;2094212;28;20071;-74
2023/01/19 02:22:24;;;;;;;1.60;0.80;;;;;;;15.93;100.00;101618.34;2090096;28;20044;-73
2023/01/19 02:23:50;;;;;;;2.88;0.60;;;;;;;15.98;100.00;101620.13;2104855;28;20050;-74
2023/01/19 02:25:12;;;;;;;3.53;0.70;;;;;;;16.05;100.00;101616.63;2086087;28;20045;-74
2023/01/19 02:26:38;;;;;;;3.53;0.60;;;;;;;16.12;100.00;101603.38;2086569;28;20049;-74
2023/01/19 02:28:00;;;;;;;2.50;0.80;;;;;;;16.17;100.00;101606.94;2092407;28;20052;-74
2023/01/19 02:29:25;;;;;;;4.18;0.93;;;;;;;16.17;100.00;101608.72;2093938;28;20048;-73
2023/01/19 02:30:46;;;;;;;5.22;0.77;;;;;;;16.12;100.00;101608.69;2095352;28;20045;-73
2023/01/19 02:32:09;;;;;;;4.72;0.90;;;;;;;16.07;100.00;101609.56;2094851;28;20405;-74
2023/01/19 02:33:30;;;;;;;4.07;0.90;;;;;;;15.99;100.00;101614.81;2096678;28;20048;-74
2023/01/19 02:34:53;;;;;;;5.00;0.75;;;;;;;15.90;100.00;101610.31;2081322;28;20175;-74
2023/01/19 02:36:18;;;;;;;2.03;0.65;;;;;;;15.84;100.00;101615.59;2094949;28;20059;-74
2023/01/19 02:37:40;;;;;;;2.85;1.02;;;;;;;15.87;100.00;101617.41;2095282;28;20053;-73
2023/01/19 02:39:06;;;;;;;2.50;0.70;;;;;;;15.87;100.00;101618.28;2094014;28;20040;-74
2023/01/19 02:40:28;;;;;;;2.70;1.00;;;;;;;15.86;100.00;101616.50;2095274;28;20048;-73
2023/01/19 02:41:54;;;;;;;6.25;0.90;;;;;;;15.87;100.00;101615.63;2094979;28;20036;-73
2023/01/19 02:43:18;;;;;;;3.90;0.70;;;;;;;15.89;100.00;101627.16;2084225;28;20515;-73
2023/01/19 02:44:43;;;;;;;2.40;0.70;;;;;;;15.89;100.00;101620.94;2091715;28;20104;-73
2023/01/19 02:46:07;;;;;;;2.67;0.80;;;;;;;15.89;100.00;101623.59;2093900;28;20200;-74
2023/01/19 02:47:39;;;;;;;3.03;0.60;;;;;;;15.87;100.00;101626.28;2093796;28;20517;-74
2023/01/19 02:49:01;;;;;;;3.35;0.80;;;;;;;15.87;100.00;101626.28;2096335;28;20085;-74
2023/01/19 02:50:45;;;;;;;2.53;0.65;;;;;;;15.86;100.00;101619.16;2087235;28;20053;-74
2023/01/19 02:52:14;;;;;;;3.78;0.90;;;;;;;15.83;100.00;101623.56;2089356;28;20037;-74
2023/01/19 02:54:28;;;;;;;3.80;1.15;;;;;;;15.81;100.00;101625.34;2085603;28;20049;-74
2023/01/19 02:55:56;;;;;;;3.75;0.93;;;;;;;15.85;100.00;101620.03;2096166;28;20667;-74
2023/01/19 02:57:30;;;;;;;6.60;0.88;;;;;;;15.94;100.00;101622.78;2086318;28;20056;-74
2023/01/19 02:59:01;;;;;;;5.07;0.77;;;;;;;16.05;100.00;101628.19;2095135;28;20052;-74
2023/01/19 03:00:33;;;;;;;1.63;0.52;;;;;;;16.15;100.00;101634.44;2103608;28;20055;-74
2023/01/19 03:02:26;;;;;;;3.33;0.98;;;;;;;16.22;100.00;101633.59;2090408;28;20080;-74
2023/01/19 03:03:54;;;;;;;4.72;0.95;;;;;;;16.23;100.00;101640.72;2089288;28;20514;-74
2023/01/19 03:05:28;;;;;;;3.97;0.75;;;;;;;16.24;100.00;101645.19;2103286;28;20575;-74
2023/01/19 03:07:00;;;;;;;3.33;0.80;;;;;;;16.23;100.00;101644.28;2096812;28;20047;-74
2023/01/19 03:08:32;;;;;;;3.50;0.77;;;;;;;16.16;100.00;101650.44;2093706;28;20056;-74
2023/01/19 03:10:04;;;;;;;2.85;0.70;;;;;;;16.14;100.00;101643.34;2085681;28;20048;-74
2023/01/19 03:11:28;;;;;;;2.75;0.73;;;;;;;16.10;100.00;101637.09;2085779;28;20102;-73
2023/01/19 03:13:00;;;;;;;3.42;0.70;;;;;;;16.05;100.00;101637.94;2086841;28;20076;-74
2023/01/19 03:14:26;;;;;;;4.65;0.85;;;;;;;16.01;100.00;101645.03;2091815;28;20044;-74
2023/01/19 03:15:53;;;;;;;4.05;1.10;;;;;;;16.03;100.00;101647.69;2093873;28;20063;-74
2023/01/19 03:17:17;;;;;;;2.47;0.90;;;;;;;16.09;100.00;101631.75;2095122;28;20445;-74
2023/01/19 03:18:42;;;;;;;4.95;0.80;;;;;;;16.15;100.00;101634.44;2083371;28;20049;-74
2023/01/19 03:20:07;;;;;;;3.60;0.52;;;;;;;16.19;100.00;101629.16;2084499;28;20056;-74
2023/01/19 03:21:31;;;;;;;5.47;1.10;;;;;;;16.22;100.00;101628.28;2082524;28;20044;-74
2023/01/19 03:22:57;;;;;;;3.92;0.55;;;;;;;16.20;100.00;101616.75;2092524;28;20134;-74
2023/01/19 03:24:22;;;;;;;4.03;0.80;;;;;;;16.18;100.00;101627.38;2095455;28;20534;-74
2023/01/19 03:25:47;;;;;;;3.38;0.85;;;;;;;16.21;100.00;101622.06;2102174;28;20494;-74
2023/01/19 03:27:15;;;;;;;3.72;0.95;;;;;;;16.23;100.00;101628.28;2098433;28;20071;-74
2023/01/19 03:28:42;;;;;;;5.95;1.38;;;;;;;16.26;100.00;101627.44;2097139;28;20056;-74
2023/01/19 03:30:09;;;;;;;3.83;1.20;;;;;;;16.28;100.00;101623.88;2099745;28;20055;-74
2023/01/19 03:31:32;;;;;;;5.13;0.80;;;;;;;16.26;100.00;101623.00;2102716;28;20048;-74
2023/01/19 03:32:59;;;;;;;2.15;0.60;;;;;;;16.22;100.00;101618.50;2103228;28;20048;-74
2023/01/19 03:34:22;;;;;;;3.03;1.00;;;;;;;16.15;100.00;101615.81;2102534;28;20056;-74
2023/01/19 03:35:49;;;;;;;6.22;0.80;;;;;;;16.10;100.00;101617.56;2103220;28;20044;-74
2023/01/19 03:37:15;;;;;;;4.18;1.15;;;;;;;16.06;100.00;101611.31;2101873;28;20500;-74
2023/01/19 03:38:40;;;;;;;3.92;0.90;;;;;;;16.02;100.00;101614.81;2102149;28;20048;-73
2023/01/19 03:40:03;;;;;;;2.53;0.98;;;;;;;16.00;100.00;101610.41;2103388;28;20040;-74
2023/01/19 03:41:30;;;;;;;3.05;0.65;;;;;;;15.99;100.00;101608.59;2093642;28;20926;-74
2023/01/19 03:42:53;;;;;;;2.47;0.70;;;;;;;15.94;100.00;101604.16;2100775;28;20052;-74
2023/01/19 03:44:15;;;;;;;2.50;0.60;;;;;;;15.93;100.00;101609.47;2102004;28;20047;-74
2023/01/19 03:45:39;;;;;;;3.53;0.50;;;;;;;15.91;100.00;101596.13;2103035;28;20055;-74
2023/01/19 03:47:04;;;;;;;3.60;1.50;;;;;;;15.92;100.00;101599.69;2101534;28;20047;-74
2023/01/19 03:48:26;;;;;;;2.38;0.80;;;;;;;15.91;100.00;101605.88;2086703;28;20049;-74
2023/01/19 03:49:52;;;;;;;3.10;0.55;;;;;;;15.91;100.00;101605.88;2097035;28;20040;-74
2023/01/19 03:51:15;;;;;;;3.40;0.95;;;;;;;15.97;100.00;101611.25;2102821;28;20521;-74
2023/01/19 03:52:37;;;;;;;1.55;0.73;;;;;;;16.06;100.00;101615.75;2096299;28;20177;-74
2023/01/19 03:54:00;;;;;;;2.60;0.50;;;;;;;16.13;100.00;101621.16;2091695;28;20040;-74
2023/01/19 03:55:22;;;;;;;2.80;0.70;;;;;;;16.17;100.00;101606.94;2096621;28;20040;-74
2023/01/19 03:56:46;;;;;;;4.25;1.55;;;;;;;16.16;100.00;101613.16;2086192;28;20158;-74
2023/01/19 03:58:07;;;;;;;3.53;0.80;;;;;;;16.11;100.00;101612.25;2094265;28;20040;-74
2023/01/19 03:59:30;;;;;;;1.80;0.50;;;;;;;16.10;100.00;101610.44;2101366;28;20370;-74
2023/01/19 04:00:52;;;;;;;2.72;0.60;;;;;;;16.09;100.00;101611.31;2099246;28;20051;-74
2023/01/19 04:02:14;;;;;;;1.85;0.65;;;;;;;16.08;100.00;101619.34;2094506;28;20048;-74
2023/01/19 04:03:36;;;;;;;2.03;0.70;;;;;;;16.07;100.00;101615.78;2088625;28;20048;-74
2023/01/19 04:04:58;;;;;;;4.05;0.80;;;;;;;16.08;100.00;101619.34;2098812;28;20044;-74
2023/01/19 04:06:20;;;;;;;2.67;0.40;;;;;;;16.14;100.00;101617.59;2105421;28;20054;-74
2023/01/19 04:07:42;;;;;;;2.30;0.60;;;;;;;16.16;100.00;101620.25;2101675;28;20172;-74
2023/01/19 04:09:05;;;;;;;2.70;0.70;;;;;;;16.20;100.00;101622.06;2102626;28;20048;-74
2023/01/19 04:10:26;;;;;;;3.85;0.95;;;;;;;16.21;100.00;101618.53;2102380;28;20482;-74
2023/01/19 04:11:50;;;;;;;7.28;2.95;;;;;;;16.20;100.00;101622.06;2105222;28;20047;-74
2023/01/19 04:13:11;;;;;;;4.65;2.20;;;;;;;16.17;100.00;101627.38;2094390;28;20433;-74
2023/01/19 04:14:33;;;;;;;3.38;1.48;;;;;;;16.09;100.00;101629.06;2099712;28;20093;-74
2023/01/19 04:15:57;;;;;;;4.95;0.95;;;;;;;16.01;100.00;101621.06;2096776;28;20071;-74
2023/01/19 04:17:20;;;;;;;4.45;1.13;;;;;;;15.99;100.00;101627.25;2101756;28;20789;-73
2023/01/19 04:18:41;;;;;;;5.47;2.00;;;;;;;15.99;100.00;101633.47;2094090;28;20040;-74
2023/01/19 04:20:04;;;;;;;3.28;1.30;;;;;;;16.01;100.00;101625.50;2093658;28;20393;-73
2023/01/19 04:21:25;;;;;;;3.05;1.30;;;;;;;16.02;100.00;101629.91;2087323;28;20100;-73
2023/01/19 04:22:47;;;;;;;3.67;1.10;;;;;;;16.03;100.00;101637.03;2079805;28;20064;-74
2023/01/19 04:24:10;;;;;;;6.57;0.70;;;;;;;16.00;100.00;101631.69;2092531;28;20059;-72
2023/01/19 04:25:32;;;;;;;2.50;0.80;;;;;;;15.97;100.00;101623.66;2101719;28;20070;-74
2023/01/19 04:26:56;;;;;;;2.70;0.55;;;;;;;15.99;100.00;101638.78;2102013;28;20080;-74
2023/01/19 04:28:17;;;;;;;3.70;0.57;;;;;;;16.05;100.00;101625.53;2102558;28;20052;-74
2023/01/19 04:29:40;;;;;;;2.90;0.40;;;;;;;16.13;100.00;101636.22;2099536;28;20060;-74
2023/01/19 04:31:01;;;;;;;3.35;0.70;;;;;;;16.23;100.00;101633.63;2094038;28;20513;-73
2023/01/19 04:32:24;;;;;;;2.33;0.63;;;;;;;16.29;100.00;101633.66;2089693;28;20048;-74
2023/01/19 04:33:47;;;;;;;1.65;0.60;;;;;;;16.31;100.00;101634.56;2091277;28;20503;-74
2023/01/19 04:35:08;;;;;;;3.92;0.90;;;;;;;16.33;100.00;101634.59;2094003;28;20036;-74
2023/01/19 04:36:31;;;;;;;1.83;0.43;;;;;;;16.33;100.00;101630.16;2093740;28;20429;-74
2023/01/19 04:37:53;;;;;;;2.80;0.68;;;;;;;16.37;100.00;101636.38;2091449;28;20825;-75
2023/01/19 04:39:15;;;;;;;2.63;0.70;;;;;;;16.39;100.00;101631.06;2099522;28;20036;-74
2023/01/19 04:40:37;;;;;;;2.75;0.85;;;;;;;16.40;100.00;101636.41;2096439;28;20464;-73
2023/01/19 04:42:01;;;;;;;2.63;0.85;;;;;;;16.43;100.00;101651.50;2101405;28;20036;-74
2023/01/19 04:43:23;;;;;;;0.73;0.52;;;;;;;16.44;100.00;101637.31;2094065;28;20052;-74
2023/01/19 04:44:45;;;;;;;4.50;0.65;;;;;;;16.45;100.00;101639.09;2098808;28;20127;-74
2023/01/19 04:46:07;;;;;;;3.03;0.95;;;;;;;16.44;100.00;101631.97;2100642;28;20130;-74
2023/01/19 04:47:30;;;;;;;8.30;1.67;;;;;;;16.41;100.00;101634.63;2100664;28;20052;-74
2023/01/19 04:48:52;;;;;;;4.00;1.50;;;;;;;16.38;100.00;101640.84;2088856;28;20140;-74
2023/01/19 04:50:14;;;;;;;2.72;1.20;;;;;;;16.34;100.00;101639.03;2094391;28;20047;-73
2023/01/19 04:51:36;;;;;;;2.67;1.20;;;;;;;16.31;100.00;101642.56;2101091;28;20052;-74
2023/01/19 04:52:58;;;;;;;5.05;2.78;;;;;;;16.28;100.00;101650.53;2100366;28;20409;-74
2023/01/19 04:54:19;;;;;;;3.58;0.85;;;;;;;16.25;100.00;101641.63;2100723;28;20893;-74
2023/01/19 04:55:42;;;;;;;3.15;1.90;;;;;;;16.22;100.00;101642.50;2100415;28;20637;-74
2023/01/19 04:57:05;;;;;;;6.13;2.47;;;;;;;16.24;100.00;101654.06;2102365;28;20055;-74
2023/01/19 04:58:27;;;;;;;4.60;1.35;;;;;;;16.25;100.00;101638.97;2100969;28;20059;-74
2023/01/19 04:59:49;;;;;;;5.57;2.58;;;;;;;16.23;100.00;101648.72;2093809;28;20040;-74
2023/01/19 05:01:11;;;;;;;5.35;2.47;;;;;;;16.18;100.00;101637.16;2085369;28;20410;-74
2023/01/19 05:02:33;;;;;;;6.35;4.10;;;;;;;16.13;100.00;101630.91;2090768;28;20049;-74
2023/01/19 05:03:55;;;;;;;9.38;4.15;;;;;;;16.08;100.00;101637.97;2100389;28;20134;-74
2023/01/19 05:05:17;;;;;;;6.10;3.50;;;;;;;16.02;100.00;101636.13;2102096;28;20048;-74
2023/01/19 05:06:39;;;;;;;8.02;4.70;;;;;;;15.95;100.00;101632.53;2099681;28;20032;-73
2023/01/19 05:08:01;;;;;;;3.78;1.40;;;;;;;15.87;100.00;101628.94;2093347;28;20058;-74
2023/01/19 05:09:23;;;;;;;4.72;1.45;;;;;;;15.85;100.00;101625.38;2096495;28;20048;-73
2023/01/19 05:10:45;;;;;;;6.45;2.10;;;;;;;15.86;100.00;101632.47;2098792;28;20093;-73
2023/01/19 05:12:10;;;;;;;17.55;8.88;;;;;;;15.85;100.00;101620.03;2101935;28;20047;-74
2023/01/19 05:13:33;;;;;;;7.95;3.83;;;;;;;15.86;100.00;101623.59;2094262;28;20056;-73
2023/01/19 05:14:55;;;;;;;3.05;0.85;;;;;;;15.88;100.00;101630.69;2099645;28;20417;-73
2023/01/19 05:16:18;;;;;;;1.48;0.60;;;;;;;15.90;100.00;101630.72;2101157;28;20728;-73
2023/01/19 05:17:39;;;;;;;10.60;5.03;;;;;;;15.91;100.00;101621.84;2104831;28;20517;-73
2023/01/19 05:19:01;;;;;;;4.60;1.92;;;;;;;15.91;100.00;101630.75;2098136;28;20467;-74
2023/01/19 05:20:24;;;;;;;3.13;0.73;;;;;;;15.92;100.00;101611.22;2092648;28;20053;-73
2023/01/19 05:21:46;;;;;;;2.67;0.63;;;;;;;15.94;100.00;101628.13;2098573;28;20104;-73
2023/01/19 05:23:09;;;;;;;2.65;1.05;;;;;;;15.93;100.00;101622.78;2100941;28;20427;-73
2023/01/19 05:24:30;;;;;;;2.45;0.80;;;;;;;15.92;100.00;101624.53;2101915;28;20060;-74
2023/01/19 05:25:54;;;;;;;1.42;0.50;;;;;;;15.92;100.00;101632.53;2091918;28;20052;-74
2023/01/19 05:27:16;;;;;;;3.83;1.67;;;;;;;15.93;100.00;101617.44;2098219;28;20072;-73
2023/01/19 05:28:38;;;;;;;6.85;2.90;;;;;;;15.94;100.00;101630.78;2101194;28;20072;-73
2023/01/19 05:30:00;;;;;;;4.05;1.60;;;;;;;15.94;100.00;101638.78;2102456;28;20052;-74
2023/01/19 05:31:22;;;;;;;4.75;1.80;;;;;;;15.91;100.00;101636.06;2098379;28;20101;-73
2023/01/19 05:32:44;;;;;;;3.95;2.58;;;;;;;15.90;100.00;101652.03;2093783;28;20082;-74
2023/01/19 05:34:06;;;;;;;4.15;1.60;;;;;;;15.92;100.00;101655.59;2096767;28;20039;-74
2023/01/19 05:35:28;;;;;;;7.53;2.88;;;;;;;15.97;100.00;101642.31;2100526;28;20390;-74
2023/01/19 05:36:50;;;;;;;4.60;3.08;;;;;;;16.01;100.00;101661.00;2094881;28;20048;-74
2023/01/19 05:38:12;;;;;;;7.82;4.70;;;;;;;16.07;100.00;101655.72;2094972;28;20174;-74
2023/01/19 05:39:35;;;;;;;8.88;5.05;;;;;;;16.12;100.00;101663.75;2104283;28;20052;-73
2023/01/19 05:40:57;;;;;;;7.47;4.38;;;;;;;16.16;100.00;101671.75;2100351;28;20134;-74
2023/01/19 05:42:21;;;;;;;6.80;3.70;;;;;;;16.21;100.00;101666.50;2100194;28;20513;-74
2023/01/19 05:43:44;;;;;;;7.47;4.80;;;;;;;16.24;100.00;101672.72;2100897;28;20064;-73
2023/01/19 05:45:07;;;;;;;8.27;4.70;;;;;;;16.32;100.00;101672.78;2093650;28;20453;-73
2023/01/19 05:46:30;;;;;;;6.63;3.63;;;;;;;16.37;100.00;101679.03;2094392;28;20561;-74
2023/01/19 05:47:52;;;;;;;5.90;2.65;;;;;;;16.42;100.00;101673.72;2098451;28;20041;-73
2023/01/19 05:49:15;;;;;;;7.45;3.40;;;;;;;16.48;100.00;101677.31;2093361;28;20521;-73
2023/01/19 05:50:37;;;;;;;5.72;1.95;;;;;;;16.54;100.00;101665.81;2092680;28;20073;-73
2023/01/19 05:51:59;;;;;;;2.95;1.45;;;;;;;16.61;100.00;101672.97;2101859;28;20047;-74
2023/01/19 05:53:22;;;;;;;2.70;1.00;;;;;;;16.69;100.00;101672.13;2101819;28;20520;-73
2023/01/19 05:54:43;;;;;;;4.57;1.70;;;;;;;16.78;100.00;101681.97;2100359;28;20067;-74
2023/01/19 05:56:08;;;;;;;5.68;1.77;;;;;;;16.88;100.00;101677.56;2093768;28;20052;-74
2023/01/19 05:57:32;;;;;;;4.05;2.28;;;;;;;16.97;100.00;101672.25;2101869;28;20709;-74
2023/01/19 05:58:54;;;;;;;5.70;2.88;;;;;;;17.05;100.00;101670.53;2104422;28;20044;-74
2023/01/19 06:00:17;;;;;;;6.35;3.50;;;;;;;17.13;100.00;101676.78;2102189;28;20528;-74
2023/01/19 06:01:40;;;;;;;9.10;3.80;;;;;;;17.18;100.00;101677.69;2095551;28;20531;-74
2023/01/19 06:03:02;;;;;;;9.68;4.47;;;;;;;17.24;100.00;101675.03;2101127;28;20137;-74
2023/01/19 06:04:24;;;;;;;7.82;4.20;;;;;;;17.27;100.00;101672.34;2094672;28;20051;-74
2023/01/19 06:05:46;;;;;;;8.45;4.53;;;;;;;17.32;100.00;101670.63;2100823;28;20131;-74
2023/01/19 06:07:09;;;;;;;7.22;4.50;;;;;;;17.37;100.00;101663.50;2101042;28;20489;-74
2023/01/19 06:08:31;;;;;;;9.25;4.72;;;;;;;17.40;100.00;101679.50;2103501;28;20090;-74
2023/01/19 06:09:52;;;;;;;8.52;4.45;;;;;;;17.41;100.00;101675.06;2095195;28;20045;-74
2023/01/19 06:11:15;;;;;;;9.60;6.45;;;;;;;17.40;100.00;101687.53;2102689;28;20044;-74
2023/01/19 06:12:39;;;;;;;11.88;7.10;;;;;;;17.40;100.00;101684.84;2095086;28;20045;-73
2023/01/19 06:14:02;;;;;;;7.53;4.93;;;;;;;17.41;100.00;101683.97;2099733;28;20052;-74
2023/01/19 06:15:24;;;;;;;8.63;5.45;;;;;;;17.41;100.00;101697.31;2106119;28;20052;-74
2023/01/19 06:16:45;;;;;;;6.30;2.05;;;;;;;17.41;100.00;101681.28;2102349;28;20066;-74
2023/01/19 06:18:07;;;;;;;4.40;2.35;;;;;;;17.38;100.00;101692.00;2087091;28;20049;-74
2023/01/19 06:19:30;;;;;;;3.40;1.30;;;;;;;17.35;100.00;101686.63;2089276;28;20159;-74
2023/01/19 06:20:57;;;;;;;6.68;3.03;;;;;;;17.29;100.00;101688.38;2097646;28;20055;-74
2023/01/19 06:22:19;;;;;;;9.70;6.60;;;;;;;17.19;100.00;101689.25;2095900;28;20040;-74
2023/01/19 06:23:42;;;;;;;11.00;7.85;;;;;;;17.10;100.00;101684.78;2099767;28;20067;-74
2023/01/19 06:25:05;;;;;;;13.23;7.95;;;;;;;17.05;100.00;101697.22;2099873;28;20047;-74
2023/01/19 06:26:27;;;;;;;12.85;9.43;;;;;;;17.01;100.00;101687.38;2102432;28;20105;-74
2023/01/19 06:27:51;;;;;;;11.98;8.15;;;;;;;16.97;100.00;101688.28;2101279;28;20059;-74
2023/01/19 06:29:14;;;;;;;13.73;11.02;;;;;;;16.91;100.00;101688.25;2088101;28;20037;-73
2023/01/19 06:30:36;;;;;;;14.15;11.45;;;;;;;16.86;100.00;101682.91;2095105;28;20044;-73
2023/01/19 06:31:58;;;;;;;10.65;6.35;;;;;;;16.86;100.00;101687.34;2102186;28;20047;-74
2023/01/19 06:33:21;;;;;;;6.47;3.42;;;;;;;16.89;100.00;101677.56;2105949;28;20048;-74
2023/01/19 06:34:43;;;;;;;8.23;4.22;;;;;;;17.00;100.00;101680.28;2103230;28;20048;-73
2023/01/19 06:36:06;;;;;;;18.83;9.63;;;;;;;17.05;100.00;101675.88;2103325;28;20090;-74